Time;durP1;ratioP1;P1;durP2;ratioP2;P2;SDS_P1;SDS_P2;PMS_P1;PMS_P2;Temp;Humidity;BMP_temperature;BMP_pressure;BME280_temperature;BME280_humidity;BME280_pressure;Samples;Min_cycle;Max_cycle;Signal;HPM_P1;HPM_P2
2023/01/24 00:01:04;;;;;;;21.50;16.27;;;3.00;99.90;;;;;;5022513;28;20524;-71
2023/01/24 00:03:30;;;;;;;23.90;15.50;;;3.00;99.90;;;;;;5020788;28;20187;-71
2023/01/24 00:05:55;;;;;;;23.70;18.27;;;3.00;99.90;;;;;;5008145;28;20241;-71
2023/01/24 00:08:24;;;;;;;22.60;16.30;;;3.10;99.90;;;;;;5025628;28;20212;-71
2023/01/24 00:11:01;;;;;;;23.23;16.80;;;3.10;99.90;;;;;;5017885;28;20206;-71
2023/01/24 00:13:27;;;;;;;22.77;16.07;;;3.10;99.90;;;;;;5023871;28;20453;-71
2023/01/24 00:16:09;;;;;;;21.13;15.37;;;3.00;99.90;;;;;;5025390;28;20468;-71
2023/01/24 00:18:35;;;;;;;22.40;15.27;;;3.10;99.90;;;;;;5017727;28;22035;-71
2023/01/24 00:21:08;;;;;;;21.70;17.53;;;3.00;99.90;;;;;;5027960;28;20464;-71
2023/01/24 00:23:35;;;;;;;23.70;17.20;;;3.00;99.90;;;;;;5021932;28;20509;-71
2023/01/24 00:26:00;;;;;;;22.30;15.57;;;3.00;99.90;;;;;;5025734;28;20942;-71
2023/01/24 00:28:26;;;;;;;23.97;16.33;;;3.00;99.90;;;;;;5027616;28;20463;-71
2023/01/24 00:30:51;;;;;;;22.30;15.87;;;3.00;99.90;;;;;;5015558;28;20214;-72
2023/01/24 00:33:17;;;;;;;27.00;17.03;;;3.00;99.90;;;;;;5026774;28;20680;-71
2023/01/24 00:35:42;;;;;;;25.60;17.93;;;3.10;99.90;;;;;;5022999;28;20182;-72
2023/01/24 00:38:08;;;;;;;23.53;16.23;;;3.00;99.90;;;;;;5025341;28;20303;-71
2023/01/24 00:40:33;;;;;;;22.57;14.53;;;3.00;99.90;;;;;;5016278;28;20672;-71
2023/01/24 00:42:59;;;;;;;21.97;15.43;;;2.90;99.90;;;;;;5022368;28;20186;-71
2023/01/24 00:45:24;;;;;;;24.40;15.67;;;2.90;99.90;;;;;;5021903;28;20179;-71
2023/01/24 00:47:50;;;;;;;23.70;16.90;;;2.90;99.90;;;;;;5013052;28;20235;-70
2023/01/24 00:50:15;;;;;;;22.97;15.00;;;2.80;99.90;;;;;;5020317;28;20607;-71
2023/01/24 00:52:41;;;;;;;22.17;15.57;;;2.90;99.90;;;;;;5020230;28;20192;-72
2023/01/24 00:55:07;;;;;;;21.70;16.50;;;2.90;99.90;;;;;;5021664;28;20629;-70
2023/01/24 00:57:32;;;;;;;20.50;13.50;;;2.90;99.90;;;;;;5021684;28;20215;-71
2023/01/24 00:59:58;;;;;;;23.13;16.97;;;2.90;99.90;;;;;;5024453;28;20186;-72
2023/01/24 01:02:23;;;;;;;18.57;14.53;;;2.90;99.90;;;;;;5021096;28;20194;-71
2023/01/24 01:04:49;;;;;;;20.43;14.30;;;2.90;99.90;;;;;;5022270;28;20190;-71
2023/01/24 01:07:14;;;;;;;25.50;16.70;;;2.80;99.90;;;;;;5020799;28;20553;-71
2023/01/24 01:09:40;;;;;;;21.63;15.10;;;2.80;99.90;;;;;;5012626;28;20191;-71
2023/01/24 01:12:05;;;;;;;22.27;16.43;;;2.80;99.90;;;;;;5011714;28;20179;-72
2023/01/24 01:14:31;;;;;;;19.93;13.63;;;2.90;99.90;;;;;;5021319;28;20571;-71
2023/01/24 01:16:56;;;;;;;21.07;15.93;;;2.80;99.90;;;;;;4995994;28;20217;-71
2023/01/24 01:19:22;;;;;;;18.97;14.40;;;2.80;99.90;;;;;;5020516;28;20231;-71
2023/01/24 01:21:49;;;;;;;22.13;14.70;;;2.80;99.90;;;;;;5023162;28;20183;-71
2023/01/24 01:24:15;;;;;;;18.00;13.80;;;2.80;99.90;;;;;;5024727;28;20265;-72
2023/01/24 01:26:40;;;;;;;20.37;15.27;;;2.80;99.90;;;;;;5018482;28;20588;-71
2023/01/24 01:29:06;;;;;;;20.80;15.27;;;2.90;99.90;;;;;;5011418;28;20217;-71
2023/01/24 01:31:32;;;;;;;21.80;15.50;;;2.80;99.90;;;;;;5020462;28;20186;-72
2023/01/24 01:33:57;;;;;;;19.27;14.70;;;2.80;99.90;;;;;;5024701;28;20193;-72
2023/01/24 01:36:23;;;;;;;21.13;15.40;;;2.80;99.90;;;;;;5020925;28;20237;-71
2023/01/24 01:38:48;;;;;;;18.73;13.77;;;2.80;99.90;;;;;;5019179;28;20198;-70
2023/01/24 01:41:14;;;;;;;16.30;12.33;;;2.80;99.90;;;;;;5014323;28;20778;-71
2023/01/24 01:44:37;;;;;;;19.47;14.60;;;2.80;99.90;;;;;;5021978;28;20237;-72
2023/01/24 01:46:29;;;;;;;16.93;13.30;;;2.80;99.90;;;;;;5023111;28;20997;-71
2023/01/24 01:49:00;;;;;;;19.00;13.43;;;2.80;99.90;;;;;;5018315;28;20445;-72
2023/01/24 01:51:30;;;;;;;22.13;14.73;;;2.80;99.90;;;;;;5018862;28;20492;-71
2023/01/24 01:54:22;;;;;;;20.27;14.77;;;2.80;99.90;;;;;;5023933;28;20809;-71
2023/01/24 01:57:00;;;;;;;20.27;14.47;;;2.90;99.90;;;;;;5010263;28;20548;-72
2023/01/24 01:59:35;;;;;;;19.27;13.33;;;2.90;99.90;;;;;;5019833;28;20437;-71
2023/01/24 02:02:03;;;;;;;17.73;13.07;;;2.80;99.90;;;;;;5010606;28;20506;-71
2023/01/24 02:04:33;;;;;;;18.33;14.40;;;2.80;99.90;;;;;;5019631;28;20438;-71
2023/01/24 02:07:16;;;;;;;19.77;14.13;;;2.80;99.90;;;;;;5017278;28;20472;-72
2023/01/24 02:09:45;;;;;;;18.60;13.30;;;2.80;99.90;;;;;;5019136;28;20445;-72
2023/01/24 02:12:17;;;;;;;22.40;15.90;;;2.80;99.90;;;;;;5022082;28;20994;-72
2023/01/24 02:17:31;;;;;;;21.80;15.13;;;2.80;99.90;;;;;;5020008;28;20552;-71
2023/01/24 02:20:18;;;;;;;24.63;16.10;;;2.80;99.90;;;;;;5022743;28;20449;-71
2023/01/24 02:23:04;;;;;;;18.07;13.40;;;2.80;99.90;;;;;;5022197;28;20439;-72
2023/01/24 02:26:06;;;;;;;20.17;14.80;;;2.80;99.90;;;;;;5011898;28;20437;-71
2023/01/24 02:28:33;;;;;;;20.63;12.60;;;2.90;99.90;;;;;;5008074;28;20491;-72
2023/01/24 02:30:59;;;;;;;21.90;15.07;;;2.80;99.90;;;;;;5018017;28;20438;-72
2023/01/24 02:33:25;;;;;;;19.97;14.47;;;2.80;99.90;;;;;;5019108;28;20514;-70
2023/01/24 02:36:21;;;;;;;19.93;14.60;;;2.80;99.90;;;;;;5022625;28;20442;-71
2023/01/24 02:38:54;;;;;;;21.57;14.40;;;2.80;99.90;;;;;;5019963;28;20519;-72
2023/01/24 02:41:24;;;;;;;21.30;15.00;;;2.80;99.90;;;;;;5019968;28;20903;-71
2023/01/24 02:43:54;;;;;;;18.90;12.10;;;2.80;99.90;;;;;;5011704;28;20449;-70
2023/01/24 02:46:20;;;;;;;16.93;13.13;;;2.80;99.90;;;;;;5011406;28;20472;-71
2023/01/24 02:48:45;;;;;;;21.33;15.37;;;2.80;99.90;;;;;;5012871;28;20497;-70
2023/01/24 02:53:55;;;;;;;21.20;14.37;;;2.80;99.90;;;;;;5009482;28;20189;-71
2023/01/24 02:59:05;;;;;;;18.53;14.03;;;2.90;99.90;;;;;;5011507;28;20237;-72
2023/01/24 03:01:31;;;;;;;20.23;14.80;;;2.90;99.90;;;;;;5011664;28;20876;-72
2023/01/24 03:03:57;;;;;;;23.60;14.63;;;2.90;99.90;;;;;;5009985;28;20671;-71
2023/01/24 03:06:23;;;;;;;23.90;15.03;;;2.80;99.90;;;;;;5010211;28;20434;-72
2023/01/24 03:08:48;;;;;;;22.03;15.37;;;2.80;99.90;;;;;;5007932;28;20472;-71
2023/01/24 03:11:14;;;;;;;27.50;16.83;;;2.80;99.90;;;;;;5009641;28;20202;-71
2023/01/24 03:35:35;;;;;;;20.80;15.20;;;2.80;99.90;;;;;;5019563;28;20948;-71
2023/01/24 03:40:45;;;;;;;22.73;16.70;;;2.80;99.90;;;;;;5020919;28;20240;-70
2023/01/24 03:43:11;;;;;;;23.57;15.50;;;2.80;99.90;;;;;;5019778;28;20436;-71
2023/01/24 03:45:39;;;;;;;21.83;15.50;;;2.80;99.90;;;;;;5020003;28;20203;-71
2023/01/24 03:48:12;;;;;;;21.27;14.70;;;2.80;99.90;;;;;;5022391;28;20205;-68
2023/01/24 03:53:28;;;;;;;21.20;15.57;;;2.90;99.90;;;;;;5017559;28;20925;-71
2023/01/24 03:55:59;;;;;;;21.70;15.23;;;2.90;99.90;;;;;;5022094;28;20437;-71
2023/01/24 03:58:26;;;;;;;22.57;16.00;;;2.90;99.90;;;;;;5021745;28;20509;-72
2023/01/24 04:00:53;;;;;;;24.10;16.30;;;2.90;99.90;;;;;;5019875;28;20433;-71
2023/01/24 04:03:18;;;;;;;22.97;15.17;;;3.00;99.90;;;;;;5022065;28;20440;-71
2023/01/24 04:05:47;;;;;;;23.47;14.23;;;3.00;99.90;;;;;;5022582;28;20434;-71
2023/01/24 04:08:12;;;;;;;22.70;14.43;;;2.90;99.90;;;;;;5018985;28;20206;-68
2023/01/24 04:10:38;;;;;;;18.97;14.87;;;2.90;99.90;;;;;;5022833;28;20524;-71
2023/01/24 04:13:03;;;;;;;21.73;15.43;;;2.90;99.90;;;;;;5018739;28;20189;-71
2023/01/24 04:15:31;;;;;;;20.33;15.40;;;2.90;99.90;;;;;;5022709;28;20214;-71
2023/01/24 04:17:59;;;;;;;24.37;15.87;;;2.80;99.90;;;;;;5024926;28;20209;-71
2023/01/24 04:20:26;;;;;;;25.00;15.40;;;2.90;99.90;;;;;;5025115;28;20494;-70
2023/01/24 04:22:52;;;;;;;23.97;14.90;;;2.90;99.90;;;;;;5014397;28;20469;-71
2023/01/24 04:25:18;;;;;;;20.40;15.50;;;2.80;99.90;;;;;;5019269;28;20483;-71
2023/01/24 04:27:44;;;;;;;20.03;16.20;;;2.80;99.90;;;;;;5021486;28;20237;-71
2023/01/24 04:30:11;;;;;;;22.77;14.80;;;2.80;99.90;;;;;;5015603;28;20549;-71
2023/01/24 04:32:37;;;;;;;24.30;17.03;;;2.80;99.90;;;;;;5021540;28;22430;-71
2023/01/24 04:35:03;;;;;;;23.17;15.43;;;2.80;99.90;;;;;;5011460;28;20545;-71
2023/01/24 04:37:30;;;;;;;23.20;15.70;;;2.90;99.90;;;;;;5009178;28;20209;-71
2023/01/24 04:39:55;;;;;;;27.37;17.00;;;2.90;99.90;;;;;;5011711;28;20445;-71
2023/01/24 04:42:21;;;;;;;23.13;16.10;;;2.90;99.90;;;;;;5012812;28;20825;-71
2023/01/24 04:44:47;;;;;;;25.87;17.27;;;2.80;99.90;;;;;;5021220;28;20178;-71
2023/01/24 04:47:12;;;;;;;23.67;15.13;;;2.90;99.90;;;;;;5013002;28;20325;-71
2023/01/24 04:49:38;;;;;;;25.40;16.80;;;2.90;99.90;;;;;;5017062;28;20691;-71
2023/01/24 04:52:04;;;;;;;28.07;17.23;;;2.80;99.90;;;;;;5025421;28;20201;-71
2023/01/24 04:54:29;;;;;;;25.30;17.87;;;2.90;99.90;;;;;;5024226;28;20212;-70
2023/01/24 04:56:55;;;;;;;24.40;16.27;;;2.80;99.90;;;;;;5022281;28;20483;-71
2023/01/24 04:59:20;;;;;;;22.77;17.40;;;2.80;99.90;;;;;;5021279;28;20205;-72
2023/01/24 05:01:46;;;;;;;26.47;19.13;;;2.80;99.90;;;;;;5023688;28;20274;-70
2023/01/24 05:04:11;;;;;;;25.07;15.03;;;2.90;99.90;;;;;;5007702;28;20175;-72
2023/01/24 05:06:37;;;;;;;23.53;15.13;;;2.90;99.90;;;;;;5024428;28;20232;-71
2023/01/24 05:09:03;;;;;;;19.03;15.20;;;2.90;99.90;;;;;;5020031;28;20202;-70
2023/01/24 05:11:28;;;;;;;23.73;17.30;;;2.90;99.90;;;;;;5017314;28;20599;-70
2023/01/24 05:13:54;;;;;;;22.07;16.77;;;2.90;99.90;;;;;;5022679;28;20440;-71
2023/01/24 05:16:20;;;;;;;22.97;16.83;;;2.90;99.90;;;;;;5024503;28;20183;-72
2023/01/24 05:18:45;;;;;;;24.27;17.00;;;2.90;99.90;;;;;;5022214;28;20209;-71
2023/01/24 05:21:13;;;;;;;26.13;17.53;;;2.90;99.90;;;;;;5021268;28;20697;-71
2023/01/24 05:23:39;;;;;;;20.30;15.90;;;3.00;99.90;;;;;;5020998;28;20190;-72
2023/01/24 05:26:05;;;;;;;25.43;15.67;;;2.90;99.90;;;;;;5021319;28;20507;-71
2023/01/24 05:28:31;;;;;;;28.10;17.73;;;2.90;99.90;;;;;;5019934;28;20461;-71
2023/01/24 05:31:06;;;;;;;27.80;17.53;;;3.00;99.90;;;;;;5024138;28;20178;-70
2023/01/24 05:33:31;;;;;;;23.10;15.77;;;2.90;99.90;;;;;;5019065;28;20720;-71
2023/01/24 05:36:02;;;;;;;24.50;16.77;;;2.90;99.90;;;;;;5019891;28;20528;-71
2023/01/24 05:38:28;;;;;;;22.57;16.13;;;2.90;99.90;;;;;;5019189;28;20766;-71
2023/01/24 05:40:58;;;;;;;22.20;15.03;;;2.90;99.90;;;;;;5010065;28;20436;-72
2023/01/24 05:43:23;;;;;;;26.37;17.93;;;2.90;99.90;;;;;;5016362;28;20194;-71
2023/01/24 05:45:49;;;;;;;24.03;15.80;;;3.00;99.90;;;;;;5015719;28;20831;-71
2023/01/24 05:48:14;;;;;;;27.23;17.97;;;2.90;99.90;;;;;;5023454;28;20237;-71
2023/01/24 05:50:40;;;;;;;26.37;17.70;;;2.90;99.90;;;;;;5019071;28;20222;-71
2023/01/24 05:53:05;;;;;;;24.70;16.93;;;2.80;99.90;;;;;;5019544;28;20856;-71
2023/01/24 05:55:31;;;;;;;24.80;18.20;;;2.80;99.90;;;;;;5013759;28;20253;-71
2023/01/24 05:57:59;;;;;;;23.53;15.33;;;2.80;99.90;;;;;;5011389;28;20207;-71
2023/01/24 06:00:25;;;;;;;26.10;17.10;;;2.80;99.90;;;;;;5008267;28;20187;-71
2023/01/24 06:02:51;;;;;;;24.47;15.97;;;2.80;99.90;;;;;;5010947;28;20441;-71
2023/01/24 06:05:16;;;;;;;27.43;18.53;;;2.80;99.90;;;;;;5007261;28;20171;-71
2023/01/24 06:07:42;;;;;;;25.67;17.73;;;2.70;99.90;;;;;;5011645;28;20465;-71
2023/01/24 06:10:08;;;;;;;30.27;17.17;;;2.80;99.90;;;;;;5010133;28;20191;-72
2023/01/24 06:12:33;;;;;;;22.90;17.17;;;2.80;99.90;;;;;;5011381;28;20183;-71
2023/01/24 06:14:59;;;;;;;26.10;17.80;;;2.80;99.90;;;;;;5009726;28;20453;-73
2023/01/24 06:17:24;;;;;;;28.23;19.33;;;2.80;99.90;;;;;;5010938;28;20230;-70
2023/01/24 06:19:50;;;;;;;23.90;16.67;;;2.90;99.90;;;;;;5010593;28;20187;-71
2023/01/24 06:22:23;;;;;;;21.10;15.97;;;2.80;99.90;;;;;;5010678;28;20175;-73
2023/01/24 06:24:49;;;;;;;24.20;16.30;;;2.80;99.90;;;;;;5018360;28;20211;-70
2023/01/24 06:27:14;;;;;;;23.80;15.77;;;2.80;99.90;;;;;;5022851;28;20531;-72
2023/01/24 06:29:40;;;;;;;28.20;19.37;;;2.70;99.90;;;;;;5021878;28;20490;-72
2023/01/24 06:32:27;;;;;;;23.67;16.80;;;2.70;99.90;;;;;;5017412;28;20677;-71
2023/01/24 06:35:06;;;;;;;27.80;18.40;;;2.80;99.90;;;;;;5017799;28;20179;-72
2023/01/24 06:38:05;;;;;;;27.73;18.43;;;2.80;99.90;;;;;;5021564;28;20847;-72
2023/01/24 06:40:30;;;;;;;27.93;17.70;;;2.80;99.90;;;;;;5010133;28;20458;-71
2023/01/24 06:42:56;;;;;;;26.10;17.83;;;2.70;99.90;;;;;;5023070;28;20663;-72
2023/01/24 06:45:22;;;;;;;25.60;17.23;;;2.70;99.90;;;;;;5018937;28;20318;-72
2023/01/24 06:47:48;;;;;;;29.57;18.00;;;2.70;99.90;;;;;;5011946;28;20244;-71
2023/01/24 06:50:18;;;;;;;27.67;16.20;;;2.80;99.90;;;;;;5018579;28;20453;-71
2023/01/24 06:52:46;;;;;;;30.77;19.27;;;2.80;99.90;;;;;;5015442;28;20183;-71
2023/01/24 06:55:11;;;;;;;26.43;17.13;;;2.80;99.90;;;;;;5019461;28;20459;-72
2023/01/24 06:57:37;;;;;;;27.37;15.73;;;2.80;99.90;;;;;;5017301;28;20469;-71
2023/01/24 07:00:04;;;;;;;26.43;17.67;;;2.80;99.90;;;;;;5009284;28;20181;-71
2023/01/24 07:02:30;;;;;;;30.70;17.60;;;2.80;99.90;;;;;;5012932;28;20567;-70
2023/01/24 07:04:55;;;;;;;24.40;16.67;;;2.80;99.90;;;;;;5011271;28;20433;-71
2023/01/24 07:07:21;;;;;;;29.80;18.40;;;2.80;99.90;;;;;;5013064;28;20261;-71
2023/01/24 07:09:46;;;;;;;27.97;16.90;;;2.80;99.90;;;;;;5020220;28;20191;-71
2023/01/24 07:12:12;;;;;;;31.00;19.33;;;2.90;99.90;;;;;;5022151;28;20232;-71
2023/01/24 07:14:37;;;;;;;29.93;20.07;;;2.90;99.90;;;;;;5013667;28;20183;-70
2023/01/24 07:17:03;;;;;;;28.90;19.23;;;2.90;99.90;;;;;;5018784;28;20636;-71
2023/01/24 07:19:29;;;;;;;28.27;18.70;;;3.00;99.90;;;;;;5012743;28;20210;-71
2023/01/24 07:21:56;;;;;;;29.00;18.90;;;2.90;99.90;;;;;;5026204;28;20253;-71
2023/01/24 07:24:25;;;;;;;29.37;18.90;;;2.90;99.90;;;;;;5019121;28;20167;-72
2023/01/24 07:26:51;;;;;;;29.80;21.50;;;2.90;99.90;;;;;;5022881;28;20465;-71
2023/01/24 07:29:18;;;;;;;33.97;19.93;;;2.90;99.90;;;;;;5023290;28;20471;-70
2023/01/24 07:31:43;;;;;;;31.87;20.20;;;2.90;99.90;;;;;;5015155;28;20484;-72
2023/01/24 07:34:09;;;;;;;30.97;19.23;;;3.00;99.90;;;;;;5006795;28;20493;-70
2023/01/24 07:36:35;;;;;;;31.90;21.23;;;3.00;99.90;;;;;;5010997;28;20183;-72
2023/01/24 07:39:00;;;;;;;28.20;18.47;;;3.00;99.90;;;;;;5014723;28;20207;-71
2023/01/24 07:41:26;;;;;;;34.33;19.50;;;3.00;99.90;;;;;;5021283;28;20545;-71
2023/01/24 07:43:51;;;;;;;30.77;17.97;;;3.10;99.90;;;;;;5017876;28;20198;-70
2023/01/24 07:46:18;;;;;;;33.60;21.03;;;3.10;99.90;;;;;;4980249;28;20183;-71
2023/01/24 07:48:43;;;;;;;27.87;18.00;;;3.10;99.90;;;;;;5005744;28;20213;-71
2023/01/24 07:51:09;;;;;;;32.40;19.27;;;3.10;99.90;;;;;;5004174;28;20433;-69
2023/01/24 07:53:35;;;;;;;30.17;19.73;;;3.10;99.90;;;;;;5015973;28;20272;-70
2023/01/24 07:56:01;;;;;;;30.03;17.60;;;3.00;99.90;;;;;;5004483;28;20183;-72
2023/01/24 07:58:27;;;;;;;28.20;19.83;;;3.10;99.90;;;;;;5014606;28;20472;-72
2023/01/24 08:00:53;;;;;;;29.37;17.90;;;3.10;99.90;;;;;;5012744;28;20522;-71
2023/01/24 08:03:18;;;;;;;28.63;18.83;;;3.10;99.90;;;;;;5019321;28;20487;-70
2023/01/24 08:05:44;;;;;;;31.10;20.40;;;3.20;99.90;;;;;;5009941;28;20284;-69
2023/01/24 08:08:10;;;;;;;31.77;18.43;;;3.20;99.90;;;;;;5006667;28;20199;-68
2023/01/24 08:10:35;;;;;;;29.67;20.80;;;3.10;99.90;;;;;;5010875;28;20175;-72
2023/01/24 08:13:01;;;;;;;29.03;19.90;;;3.00;99.90;;;;;;4994661;28;20179;-71
2023/01/24 08:15:26;;;;;;;34.27;19.80;;;3.00;99.90;;;;;;5008417;28;20664;-72
2023/01/24 08:17:52;;;;;;;29.10;20.33;;;3.00;99.90;;;;;;5010077;28;20837;-71
2023/01/24 08:20:18;;;;;;;28.70;20.37;;;3.10;99.90;;;;;;5011193;28;20179;-71
2023/01/24 08:22:43;;;;;;;25.93;17.77;;;3.10;99.90;;;;;;5013567;28;20174;-69
2023/01/24 08:25:09;;;;;;;30.57;17.77;;;3.10;99.90;;;;;;5013222;28;20183;-72
2023/01/24 08:27:39;;;;;;;27.70;19.80;;;3.20;99.90;;;;;;5021151;28;20282;-71
2023/01/24 08:30:05;;;;;;;32.47;19.53;;;3.10;99.90;;;;;;5023547;28;20958;-70
2023/01/24 08:32:31;;;;;;;21.47;16.70;;;3.10;99.90;;;;;;5012726;28;21016;-69
2023/01/24 08:34:57;;;;;;;28.80;17.90;;;3.20;99.90;;;;;;5021230;28;21273;-71
2023/01/24 08:37:23;;;;;;;24.80;17.07;;;3.20;99.90;;;;;;4995114;28;20464;-70
2023/01/24 08:39:49;;;;;;;24.60;17.93;;;3.20;99.90;;;;;;5023581;28;20174;-71
2023/01/24 08:42:14;;;;;;;29.90;18.03;;;3.20;99.90;;;;;;5018794;28;20799;-72
2023/01/24 08:44:40;;;;;;;27.57;17.87;;;3.30;99.90;;;;;;5009980;28;20535;-73
2023/01/24 08:47:06;;;;;;;29.97;15.90;;;3.30;99.90;;;;;;5011114;28;20186;-71
2023/01/24 08:49:31;;;;;;;27.73;18.97;;;3.30;99.90;;;;;;5010646;28;20190;-72
2023/01/24 08:52:00;;;;;;;25.77;17.67;;;3.40;99.90;;;;;;5024450;28;20179;-70
2023/01/24 08:54:27;;;;;;;26.13;16.60;;;3.40;99.90;;;;;;5013211;28;20257;-71
2023/01/24 08:56:53;;;;;;;23.43;17.43;;;3.40;99.90;;;;;;5005691;28;20962;-71
2023/01/24 08:59:19;;;;;;;24.53;17.07;;;3.40;99.90;;;;;;5010181;28;20465;-73
2023/01/24 09:01:44;;;;;;;25.93;16.90;;;3.40;99.90;;;;;;5011434;28;20442;-72
2023/01/24 09:04:11;;;;;;;27.50;16.70;;;3.40;99.90;;;;;;5009600;28;20470;-71
2023/01/24 09:06:37;;;;;;;25.60;17.87;;;3.40;99.90;;;;;;4993102;28;20175;-71
2023/01/24 09:09:03;;;;;;;25.83;17.23;;;3.40;99.90;;;;;;5009378;28;20468;-71
2023/01/24 09:11:29;;;;;;;25.03;15.87;;;3.50;99.90;;;;;;5009012;28;20601;-72
2023/01/24 09:13:55;;;;;;;28.10;16.07;;;3.60;99.90;;;;;;5009799;28;20434;-73
2023/01/24 09:16:20;;;;;;;28.43;17.53;;;3.60;99.90;;;;;;5007564;28;20437;-72
2023/01/24 09:18:46;;;;;;;24.00;16.97;;;3.80;99.90;;;;;;5008918;28;21135;-72
2023/01/24 09:21:11;;;;;;;25.70;16.93;;;3.80;99.90;;;;;;5010632;28;20175;-72
2023/01/24 09:23:37;;;;;;;25.03;17.20;;;3.90;99.90;;;;;;5020576;28;20239;-70
2023/01/24 09:26:03;;;;;;;26.17;16.70;;;3.90;99.90;;;;;;5006411;28;20176;-71
2023/01/24 09:28:29;;;;;;;26.00;16.40;;;3.90;99.90;;;;;;5008747;28;20245;-71
2023/01/24 09:30:54;;;;;;;26.13;17.53;;;3.80;99.90;;;;;;5009149;28;20469;-71
2023/01/24 09:33:20;;;;;;;24.33;17.53;;;3.80;99.90;;;;;;5008157;28;20191;-72
2023/01/24 09:35:59;;;;;;;24.77;17.80;;;3.80;99.90;;;;;;4993291;28;20558;-71
2023/01/24 09:38:27;;;;;;;27.73;17.40;;;3.80;99.90;;;;;;5008802;28;20292;-70
2023/01/24 09:41:04;;;;;;;26.43;18.70;;;3.80;99.90;;;;;;5010514;28;20442;-70
2023/01/24 09:43:52;;;;;;;29.60;18.20;;;3.80;99.90;;;;;;5006006;28;21022;-71
2023/01/24 09:46:30;;;;;;;23.20;15.87;;;3.80;99.90;;;;;;5008528;28;20510;-72
2023/01/24 09:49:05;;;;;;;30.13;18.70;;;3.80;99.90;;;;;;5010033;28;20971;-71
2023/01/24 09:51:34;;;;;;;21.67;16.20;;;3.80;99.90;;;;;;5010675;28;20440;-72
2023/01/24 09:54:02;;;;;;;26.77;18.87;;;3.90;99.90;;;;;;5008234;28;20453;-72
2023/01/24 09:56:35;;;;;;;27.20;17.60;;;3.90;99.90;;;;;;5005298;28;20464;-71
2023/01/24 09:59:15;;;;;;;25.23;17.63;;;3.90;99.90;;;;;;5006011;28;20528;-71
2023/01/24 10:01:41;;;;;;;26.40;17.20;;;3.90;99.90;;;;;;4988382;28;20811;-69
2023/01/24 10:04:28;;;;;;;22.00;16.00;;;3.80;99.90;;;;;;5001355;28;20505;-68
2023/01/24 10:07:21;;;;;;;23.13;16.57;;;3.80;99.90;;;;;;5012528;28;20225;-71
2023/01/24 10:09:59;;;;;;;25.73;16.67;;;3.90;99.90;;;;;;5014854;28;20560;-72
2023/01/24 10:12:56;;;;;;;27.03;17.13;;;3.90;99.90;;;;;;5008992;28;20528;-71
2023/01/24 10:16:08;;;;;;;22.20;16.70;;;3.80;99.90;;;;;;5004641;28;22279;-72
2023/01/24 10:19:07;;;;;;;28.43;17.33;;;3.90;99.90;;;;;;5008988;28;20488;-70
2023/01/24 10:22:09;;;;;;;26.27;17.13;;;3.90;99.90;;;;;;5013769;28;20472;-71
2023/01/24 10:24:39;;;;;;;21.53;15.43;;;3.80;99.90;;;;;;5004670;28;20456;-73
2023/01/24 10:27:19;;;;;;;20.60;15.80;;;3.80;99.90;;;;;;5008186;28;20620;-74
2023/01/24 10:29:47;;;;;;;22.17;16.33;;;3.90;99.90;;;;;;5004357;28;20529;-70
2023/01/24 10:32:26;;;;;;;21.27;16.10;;;3.90;99.90;;;;;;5007230;28;20950;-74
2023/01/24 10:34:59;;;;;;;18.73;14.07;;;4.00;99.90;;;;;;5005076;28;20433;-73
2023/01/24 10:37:28;;;;;;;21.43;14.47;;;3.90;99.90;;;;;;5006406;28;20469;-74
2023/01/24 10:39:54;;;;;;;18.97;13.13;;;3.90;99.90;;;;;;5006424;28;20441;-74
2023/01/24 10:42:25;;;;;;;22.33;14.10;;;3.80;99.90;;;;;;5007383;28;20436;-73
2023/01/24 10:44:53;;;;;;;18.57;13.53;;;3.90;99.90;;;;;;5006285;28;20183;-73
2023/01/24 10:47:37;;;;;;;17.87;12.77;;;3.80;99.90;;;;;;5009086;28;20445;-73
2023/01/24 10:50:11;;;;;;;21.03;13.33;;;3.80;99.90;;;;;;5009058;28;20426;-74
2023/01/24 10:52:36;;;;;;;21.97;14.30;;;3.90;99.90;;;;;;5001306;28;20432;-74
2023/01/24 10:55:20;;;;;;;21.27;14.57;;;4.00;99.90;;;;;;5008094;28;20512;-73
2023/01/24 10:57:52;;;;;;;17.40;12.40;;;4.10;99.90;;;;;;5011817;28;20264;-73
2023/01/24 11:00:49;;;;;;;16.63;12.67;;;4.10;99.90;;;;;;5010237;28;20511;-73
2023/01/24 11:03:20;;;;;;;17.27;13.00;;;4.20;99.90;;;;;;5008210;28;20457;-72
2023/01/24 11:05:50;;;;;;;16.80;13.30;;;4.10;99.90;;;;;;5008034;28;20434;-74
2023/01/24 11:08:46;;;;;;;19.17;12.50;;;4.10;99.90;;;;;;5010858;28;20528;-74
2023/01/24 11:11:22;;;;;;;17.40;11.77;;;4.20;99.90;;;;;;4991814;28;20433;-74
2023/01/24 11:13:54;;;;;;;19.03;12.40;;;4.30;99.90;;;;;;5011757;28;20935;-74
2023/01/24 11:16:23;;;;;;;21.03;13.30;;;4.30;99.90;;;;;;5012900;28;20512;-74
2023/01/24 11:18:54;;;;;;;19.50;12.90;;;4.30;99.90;;;;;;5013831;28;21162;-70
2023/01/24 11:21:20;;;;;;;17.97;12.67;;;4.40;99.90;;;;;;5015783;28;20418;-74
2023/01/24 11:24:20;;;;;;;16.53;12.20;;;4.40;99.90;;;;;;5014911;28;20998;-72
2023/01/24 11:27:02;;;;;;;19.00;12.83;;;4.30;99.90;;;;;;5014981;28;20430;-74
2023/01/24 11:29:27;;;;;;;22.07;11.90;;;4.40;99.90;;;;;;5014169;28;20417;-73
2023/01/24 11:32:03;;;;;;;17.97;13.53;;;4.50;99.90;;;;;;5015235;28;20425;-72
2023/01/24 11:35:13;;;;;;;15.47;12.57;;;4.50;99.90;;;;;;5012649;28;20560;-73
2023/01/24 11:37:41;;;;;;;17.07;11.10;;;4.40;99.90;;;;;;4919504;29;20480;-74
2023/01/24 11:40:23;;;;;;;18.07;12.40;;;4.30;99.90;;;;;;4920705;29;20437;-74
2023/01/24 11:43:24;;;;;;;16.87;11.47;;;4.20;99.90;;;;;;4979945;28;20432;-72
2023/01/24 11:46:21;;;;;;;12.90;11.40;;;4.30;99.90;;;;;;5012103;28;20839;-74
2023/01/24 11:49:10;;;;;;;15.30;11.00;;;4.30;99.90;;;;;;5013897;28;20456;-73
2023/01/24 11:51:53;;;;;;;16.40;13.17;;;4.30;99.90;;;;;;4999505;28;20421;-74
2023/01/24 11:54:43;;;;;;;19.00;14.37;;;4.50;99.90;;;;;;5012449;28;20572;-70
2023/01/24 11:57:23;;;;;;;16.83;12.73;;;4.50;99.90;;;;;;5011959;28;20461;-74
2023/01/24 12:00:01;;;;;;;21.50;15.40;;;4.50;99.90;;;;;;5013610;28;20422;-73
2023/01/24 12:02:44;;;;;;;21.63;14.87;;;4.60;99.90;;;;;;5014594;28;20437;-72
2023/01/24 12:05:47;;;;;;;18.07;12.47;;;4.70;99.90;;;;;;5011853;28;20413;-73
2023/01/24 12:08:20;;;;;;;21.40;14.47;;;4.80;99.90;;;;;;5013709;28;20863;-73
2023/01/24 12:11:01;;;;;;;21.00;14.53;;;4.60;99.90;;;;;;5015297;28;20428;-73
2023/01/24 12:13:45;;;;;;;19.87;12.17;;;4.60;99.90;;;;;;5014373;28;20452;-72
2023/01/24 12:16:45;;;;;;;19.00;12.13;;;4.70;99.90;;;;;;5011888;28;20425;-74
2023/01/24 12:19:40;;;;;;;21.87;15.80;;;4.60;99.90;;;;;;5013401;28;20448;-73
2023/01/24 12:22:18;;;;;;;22.97;13.20;;;4.70;99.90;;;;;;5015066;28;20781;-74
2023/01/24 12:24:50;;;;;;;22.90;14.33;;;4.70;99.90;;;;;;5011531;28;20410;-73
2023/01/24 12:27:20;;;;;;;20.57;13.37;;;4.70;99.90;;;;;;5010764;28;20962;-73
2023/01/24 12:29:54;;;;;;;18.70;13.40;;;4.70;99.90;;;;;;5013935;28;20509;-73
2023/01/24 12:32:48;;;;;;;18.23;13.07;;;4.70;99.90;;;;;;5013595;28;20424;-73
2023/01/24 12:35:23;;;;;;;16.90;13.57;;;4.60;99.90;;;;;;4975755;28;20472;-72
2023/01/24 12:38:11;;;;;;;23.33;14.67;;;4.60;99.90;;;;;;5013104;28;20882;-73
2023/01/24 12:40:50;;;;;;;17.07;12.90;;;4.60;99.90;;;;;;5014380;28;20422;-73
2023/01/24 12:43:27;;;;;;;20.50;14.10;;;4.60;99.90;;;;;;5010527;28;20464;-68
2023/01/24 12:46:03;;;;;;;19.57;14.07;;;4.60;99.90;;;;;;5008175;28;20461;-73
2023/01/24 12:48:36;;;;;;;17.53;14.17;;;4.50;99.90;;;;;;5009850;28;20545;-73
2023/01/24 12:51:15;;;;;;;23.10;13.97;;;4.60;99.90;;;;;;5009990;28;20443;-73
2023/01/24 12:53:57;;;;;;;25.57;16.10;;;4.50;99.90;;;;;;4996106;28;21352;-71
2023/01/24 12:56:44;;;;;;;18.37;13.80;;;4.40;99.90;;;;;;5006856;28;20882;-70
2023/01/24 12:59:12;;;;;;;22.10;14.13;;;4.50;99.90;;;;;;5012411;28;20477;-73
2023/01/24 13:01:59;;;;;;;17.00;13.57;;;4.50;99.90;;;;;;5013814;28;20465;-73
2023/01/24 13:04:48;;;;;;;21.20;12.93;;;4.50;99.90;;;;;;4989544;28;20938;-73
2023/01/24 13:07:31;;;;;;;18.63;12.90;;;4.50;99.90;;;;;;5001729;28;20529;-70
2023/01/24 13:10:28;;;;;;;18.20;12.90;;;4.50;99.90;;;;;;5000583;28;20451;-69
2023/01/24 13:12:56;;;;;;;20.87;14.00;;;4.60;99.90;;;;;;5000341;28;20504;-71
2023/01/24 13:15:41;;;;;;;19.10;12.80;;;4.60;99.90;;;;;;4999031;28;20525;-70
2023/01/24 13:18:11;;;;;;;23.23;14.77;;;4.50;99.90;;;;;;4990073;28;20473;-70
2023/01/24 13:20:57;;;;;;;20.50;12.70;;;4.50;99.90;;;;;;4993438;28;20434;-71
2023/01/24 13:23:38;;;;;;;20.77;12.80;;;4.40;99.90;;;;;;4989762;28;20512;-71
2023/01/24 13:26:22;;;;;;;19.67;12.90;;;4.50;99.90;;;;;;4994606;28;20857;-68
2023/01/24 13:29:13;;;;;;;18.50;13.07;;;4.50;99.90;;;;;;4999607;28;20437;-69
2023/01/24 13:32:08;;;;;;;17.43;10.63;;;4.50;99.90;;;;;;5012204;28;20524;-71